Time;durP1;ratioP1;P1;durP2;ratioP2;P2;SDS_P1;SDS_P2;PMS_P1;PMS_P2;Temp;Humidity;BMP_temperature;BMP_pressure;BME280_temperature;BME280_humidity;BME280_pressure;Samples;Min_cycle;Max_cycle;Signal;HPM_P1;HPM_P2
2024/03/18 00:00:17;;;;;;;28.95;16.98;;;9.70;99.90;;;;;;5041655;28;20187;-70
2024/03/18 00:02:44;;;;;;;31.05;17.38;;;9.70;99.90;;;;;;5043081;28;20654;-68
2024/03/18 00:05:18;;;;;;;31.40;16.77;;;9.60;99.90;;;;;;5025236;28;20186;-70
2024/03/18 00:07:44;;;;;;;27.85;16.75;;;9.70;99.90;;;;;;5041147;28;20253;-70
2024/03/18 00:10:12;;;;;;;30.30;18.23;;;9.70;99.90;;;;;;5042081;28;20232;-70
2024/03/18 00:12:42;;;;;;;30.23;17.25;;;9.70;99.90;;;;;;5043079;28;20198;-68
2024/03/18 00:15:10;;;;;;;25.80;16.60;;;9.70;99.90;;;;;;5042448;28;20211;-70
2024/03/18 00:17:36;;;;;;;25.77;17.08;;;9.70;99.90;;;;;;5041623;28;20286;-71
2024/03/18 00:20:12;;;;;;;25.45;17.52;;;9.60;99.90;;;;;;5042715;28;20198;-70
2024/03/18 00:22:39;;;;;;;23.92;16.38;;;9.60;99.90;;;;;;5042185;28;20655;-71
2024/03/18 00:25:06;;;;;;;28.02;17.15;;;9.60;99.90;;;;;;5042948;28;20644;-70
2024/03/18 00:27:32;;;;;;;28.20;17.50;;;9.60;99.90;;;;;;5042684;28;20191;-68
2024/03/18 00:29:59;;;;;;;28.30;17.60;;;9.60;99.90;;;;;;5042257;28;20240;-68
2024/03/18 00:32:24;;;;;;;25.92;17.48;;;9.60;99.90;;;;;;5040910;28;20719;-69
2024/03/18 00:34:51;;;;;;;27.63;17.15;;;9.60;99.90;;;;;;5042286;28;20357;-69
2024/03/18 00:37:17;;;;;;;29.55;16.90;;;9.60;99.90;;;;;;5041719;28;20197;-70
2024/03/18 00:39:43;;;;;;;26.55;16.90;;;9.60;99.90;;;;;;5040794;28;20199;-70
2024/03/18 00:42:09;;;;;;;24.90;17.65;;;9.60;99.90;;;;;;5042666;28;20180;-70
2024/03/18 00:44:35;;;;;;;29.30;17.98;;;9.60;99.90;;;;;;5040573;28;20565;-70
2024/03/18 00:47:02;;;;;;;29.17;17.50;;;9.60;99.90;;;;;;5042120;28;20190;-69
2024/03/18 00:49:29;;;;;;;27.50;17.30;;;9.60;99.90;;;;;;5041203;28;20190;-71
2024/03/18 00:51:55;;;;;;;30.55;18.02;;;9.60;99.90;;;;;;5041872;28;20236;-70
2024/03/18 00:54:21;;;;;;;26.17;17.50;;;9.60;99.90;;;;;;5042270;28;20266;-70
2024/03/18 00:56:47;;;;;;;26.90;17.60;;;9.60;99.90;;;;;;5042014;28;20198;-70
2024/03/18 00:59:13;;;;;;;28.45;17.73;;;9.60;99.90;;;;;;5041894;28;20195;-71
2024/03/18 01:01:39;;;;;;;32.03;17.48;;;9.60;99.90;;;;;;5039022;28;20572;-70
2024/03/18 01:04:04;;;;;;;31.77;18.17;;;9.60;99.90;;;;;;5040627;28;20198;-71
2024/03/18 01:06:30;;;;;;;26.75;17.95;;;9.60;99.90;;;;;;5041654;28;20220;-70
2024/03/18 01:08:56;;;;;;;28.13;17.83;;;9.60;99.90;;;;;;5042067;28;20738;-72
2024/03/18 01:11:23;;;;;;;28.90;17.27;;;9.60;99.90;;;;;;5041906;28;20222;-70
2024/03/18 01:13:48;;;;;;;24.17;17.35;;;9.60;99.90;;;;;;5042344;28;20207;-70
2024/03/18 01:16:20;;;;;;;28.83;18.02;;;9.60;99.90;;;;;;5042357;28;20191;-70
2024/03/18 01:18:46;;;;;;;32.45;18.63;;;9.60;99.90;;;;;;5040187;28;21157;-71
2024/03/18 01:21:13;;;;;;;25.40;16.73;;;9.60;99.90;;;;;;5042032;28;20198;-71
2024/03/18 01:23:39;;;;;;;31.02;18.05;;;9.50;99.90;;;;;;5039847;28;20199;-69
2024/03/18 01:26:05;;;;;;;30.63;18.23;;;9.50;99.90;;;;;;5041187;28;20322;-70
2024/03/18 01:28:31;;;;;;;26.95;17.65;;;9.50;99.90;;;;;;5041158;28;20191;-70
2024/03/18 01:30:57;;;;;;;27.88;18.00;;;9.50;99.90;;;;;;5038430;28;20242;-70
2024/03/18 01:33:23;;;;;;;31.20;18.15;;;9.40;99.90;;;;;;5041963;28;20213;-71
2024/03/18 01:35:49;;;;;;;27.35;18.15;;;9.50;99.90;;;;;;5041272;28;20195;-70
2024/03/18 01:38:16;;;;;;;28.13;17.45;;;9.50;99.90;;;;;;5040879;28;20207;-69
2024/03/18 01:40:42;;;;;;;27.70;17.58;;;9.40;99.90;;;;;;5040613;28;20319;-69
2024/03/18 01:43:09;;;;;;;30.10;18.05;;;9.40;99.90;;;;;;5040097;28;20316;-69
2024/03/18 01:45:35;;;;;;;31.13;17.73;;;9.50;99.90;;;;;;5041301;28;20380;-70
2024/03/18 01:48:01;;;;;;;30.92;18.77;;;9.40;99.90;;;;;;5041445;28;20191;-71
2024/03/18 01:50:27;;;;;;;27.33;17.23;;;9.50;99.90;;;;;;5041518;28;20218;-71
2024/03/18 01:52:53;;;;;;;26.30;18.20;;;9.40;99.90;;;;;;5040982;28;20221;-70
2024/03/18 01:55:18;;;;;;;29.80;18.42;;;9.50;99.90;;;;;;5040615;28;20249;-70
2024/03/18 01:57:47;;;;;;;25.17;16.42;;;9.50;99.90;;;;;;5041014;28;20335;-68
2024/03/18 02:00:15;;;;;;;26.42;17.65;;;9.50;99.90;;;;;;5041174;28;20226;-70
2024/03/18 02:02:44;;;;;;;30.95;18.30;;;9.50;99.90;;;;;;5041833;28;20185;-70
2024/03/18 02:05:10;;;;;;;27.48;17.10;;;9.50;99.90;;;;;;5040419;28;20643;-70
2024/03/18 02:07:37;;;;;;;25.85;17.45;;;9.50;99.90;;;;;;5040262;28;20195;-69
2024/03/18 02:10:05;;;;;;;32.70;18.77;;;9.50;99.90;;;;;;5039049;28;20314;-70
2024/03/18 02:12:32;;;;;;;29.17;18.27;;;9.40;99.90;;;;;;5041149;28;20191;-69
2024/03/18 02:14:59;;;;;;;24.85;16.25;;;9.40;99.90;;;;;;5039106;28;20242;-70
2024/03/18 02:17:25;;;;;;;30.80;18.27;;;9.50;99.90;;;;;;5040858;28;20278;-69
2024/03/18 02:19:50;;;;;;;28.95;17.67;;;9.40;99.90;;;;;;5041345;28;20278;-70
2024/03/18 02:22:17;;;;;;;29.15;18.23;;;9.40;99.90;;;;;;5041129;28;20191;-71
2024/03/18 02:24:42;;;;;;;28.60;18.83;;;9.40;99.90;;;;;;5040108;28;20203;-70
2024/03/18 02:27:10;;;;;;;28.30;17.88;;;9.40;99.90;;;;;;5041021;28;20203;-69
2024/03/18 02:29:36;;;;;;;27.13;18.48;;;9.40;99.90;;;;;;5040574;28;20195;-68
2024/03/18 02:32:02;;;;;;;28.77;19.48;;;9.40;99.90;;;;;;5040206;28;20191;-70
2024/03/18 02:34:28;;;;;;;28.25;18.65;;;9.30;99.90;;;;;;5040184;28;20253;-71
2024/03/18 02:36:54;;;;;;;30.27;18.95;;;9.30;99.90;;;;;;5040138;28;20302;-68
2024/03/18 02:39:24;;;;;;;29.40;19.52;;;9.30;99.90;;;;;;5040822;28;20219;-70
2024/03/18 02:41:54;;;;;;;28.52;18.83;;;9.30;99.90;;;;;;5041064;28;20201;-70
2024/03/18 02:44:23;;;;;;;33.90;19.63;;;9.30;99.90;;;;;;5040628;28;20199;-73
2024/03/18 02:46:50;;;;;;;26.00;18.38;;;9.30;99.90;;;;;;5040724;28;20209;-70
2024/03/18 02:49:15;;;;;;;32.78;20.02;;;9.30;99.90;;;;;;5040385;28;20249;-69
2024/03/18 02:51:42;;;;;;;30.20;19.83;;;9.20;99.90;;;;;;5040821;28;20195;-71
2024/03/18 02:54:08;;;;;;;27.33;18.77;;;9.20;99.90;;;;;;5040114;28;20219;-70
2024/03/18 02:56:33;;;;;;;35.13;20.75;;;9.20;99.90;;;;;;5041088;28;20191;-69
2024/03/18 02:58:59;;;;;;;32.75;20.15;;;9.20;99.90;;;;;;5040087;28;20198;-70
2024/03/18 03:01:26;;;;;;;29.73;19.77;;;9.10;99.90;;;;;;5040431;28;20187;-70
2024/03/18 03:03:52;;;;;;;32.33;20.13;;;9.10;99.90;;;;;;5039964;28;20644;-70
2024/03/18 03:06:18;;;;;;;33.53;19.80;;;9.10;99.90;;;;;;5040648;28;20284;-69
2024/03/18 03:08:45;;;;;;;35.50;21.27;;;9.10;99.90;;;;;;5040358;28;20203;-70
2024/03/18 03:11:12;;;;;;;32.25;20.15;;;9.00;99.90;;;;;;5040607;28;20218;-71
2024/03/18 03:13:38;;;;;;;36.05;21.73;;;9.00;99.90;;;;;;5044142;28;20219;-70
2024/03/18 03:16:04;;;;;;;35.08;20.85;;;9.00;99.90;;;;;;5044133;28;20197;-70
2024/03/18 03:18:30;;;;;;;36.53;21.42;;;9.00;99.90;;;;;;5042731;28;20191;-69
2024/03/18 03:20:58;;;;;;;38.53;22.08;;;9.00;99.90;;;;;;5043880;28;20179;-70
2024/03/18 03:23:23;;;;;;;34.40;21.05;;;9.00;99.90;;;;;;5043405;28;20234;-71
2024/03/18 03:25:49;;;;;;;35.83;22.45;;;9.00;99.90;;;;;;5043949;28;20219;-69
2024/03/18 03:28:17;;;;;;;36.63;22.88;;;9.00;99.90;;;;;;5044059;28;20196;-70
2024/03/18 03:30:43;;;;;;;34.05;21.70;;;9.00;99.90;;;;;;5044246;28;20378;-70
2024/03/18 03:33:09;;;;;;;37.90;22.35;;;8.90;99.90;;;;;;5044039;28;20194;-72
2024/03/18 03:35:34;;;;;;;34.22;22.45;;;8.90;99.90;;;;;;5043409;28;20536;-69
2024/03/18 03:38:01;;;;;;;41.30;22.73;;;8.90;99.90;;;;;;5042438;28;20187;-71
2024/03/18 03:40:27;;;;;;;38.97;23.20;;;8.90;99.90;;;;;;5043451;28;20381;-70
2024/03/18 03:42:53;;;;;;;36.30;22.90;;;8.90;99.90;;;;;;5043268;28;20374;-70
2024/03/18 03:45:24;;;;;;;38.80;23.33;;;8.90;99.90;;;;;;5041267;28;20294;-70
2024/03/18 03:47:52;;;;;;;34.67;22.55;;;8.90;99.90;;;;;;5043910;28;20195;-70
2024/03/18 03:50:18;;;;;;;36.33;22.80;;;8.90;99.90;;;;;;5043400;28;20199;-71
2024/03/18 03:52:44;;;;;;;39.13;22.95;;;8.90;99.90;;;;;;5043016;28;20198;-70
2024/03/18 03:55:09;;;;;;;37.22;23.75;;;8.90;99.90;;;;;;5043293;28;20213;-70
2024/03/18 03:57:35;;;;;;;37.28;22.50;;;8.90;99.90;;;;;;5043193;28;20270;-70
2024/03/18 04:00:03;;;;;;;46.67;24.23;;;8.90;99.90;;;;;;5043071;28;20270;-71
2024/03/18 04:02:37;;;;;;;38.70;23.50;;;8.90;99.90;;;;;;5042752;28;20216;-68
2024/03/18 04:05:06;;;;;;;37.65;22.98;;;8.90;99.90;;;;;;5043292;28;20424;-70
2024/03/18 04:07:33;;;;;;;42.08;23.73;;;8.90;99.90;;;;;;5042253;28;20249;-69
2024/03/18 04:09:59;;;;;;;39.60;24.05;;;8.90;99.90;;;;;;5043037;28;20289;-71
2024/03/18 04:12:25;;;;;;;41.83;23.17;;;8.90;99.90;;;;;;5042309;28;20191;-70
2024/03/18 04:14:50;;;;;;;39.10;23.52;;;8.90;99.90;;;;;;5041168;28;20211;-71
2024/03/18 04:17:17;;;;;;;35.30;22.40;;;9.00;99.90;;;;;;5042680;28;20183;-71
2024/03/18 04:19:42;;;;;;;36.80;24.15;;;9.00;99.90;;;;;;5042633;28;20191;-70
2024/03/18 04:22:09;;;;;;;36.85;23.67;;;9.00;99.90;;;;;;5041072;28;20218;-70
2024/03/18 04:24:35;;;;;;;41.78;24.25;;;9.00;99.90;;;;;;5041473;28;20183;-70
2024/03/18 04:27:01;;;;;;;39.55;24.52;;;9.00;99.90;;;;;;5042957;28;20217;-72
2024/03/18 04:29:28;;;;;;;42.05;24.05;;;9.00;99.90;;;;;;5042513;28;20259;-71
2024/03/18 04:31:53;;;;;;;38.95;23.95;;;9.00;99.90;;;;;;5042910;28;20205;-70
2024/03/18 04:34:19;;;;;;;40.65;24.17;;;9.00;99.90;;;;;;5042034;28;20222;-69
2024/03/18 04:36:45;;;;;;;37.55;24.30;;;9.00;99.90;;;;;;5042969;28;20188;-71
2024/03/18 04:39:10;;;;;;;40.15;24.55;;;9.00;99.90;;;;;;5042910;28;20188;-71
2024/03/18 04:41:36;;;;;;;37.95;24.10;;;9.00;99.90;;;;;;5042663;28;20233;-70
2024/03/18 04:44:02;;;;;;;41.95;25.77;;;9.00;99.90;;;;;;5041388;28;20214;-71
2024/03/18 04:46:28;;;;;;;45.10;24.77;;;9.00;99.90;;;;;;5042162;28;20195;-70
2024/03/18 04:48:54;;;;;;;40.83;25.45;;;9.10;99.90;;;;;;5043263;28;20199;-69
2024/03/18 04:51:19;;;;;;;44.03;25.35;;;9.00;99.90;;;;;;5042236;28;20191;-71
2024/03/18 04:53:45;;;;;;;38.60;25.15;;;9.10;99.90;;;;;;5042278;28;20337;-69
2024/03/18 04:56:11;;;;;;;41.85;26.02;;;9.10;99.90;;;;;;5042135;28;20608;-71
2024/03/18 04:58:36;;;;;;;48.17;25.27;;;9.00;99.90;;;;;;5042462;28;20236;-70
2024/03/18 05:01:03;;;;;;;39.88;25.67;;;9.10;99.90;;;;;;5041130;28;20207;-71
2024/03/18 05:03:29;;;;;;;46.70;26.40;;;9.00;99.90;;;;;;5042907;28;20213;-70
2024/03/18 05:05:55;;;;;;;40.15;26.50;;;9.10;99.90;;;;;;5041247;28;20187;-71
2024/03/18 05:08:21;;;;;;;44.17;26.67;;;9.00;99.90;;;;;;5039963;28;20191;-71
2024/03/18 05:10:47;;;;;;;48.35;27.63;;;9.00;99.90;;;;;;5041450;28;20275;-70
2024/03/18 05:13:13;;;;;;;47.15;26.40;;;9.10;99.90;;;;;;5041188;28;20277;-71
2024/03/18 05:15:38;;;;;;;44.20;26.50;;;9.00;99.90;;;;;;5041448;28;20240;-70
2024/03/18 05:18:04;;;;;;;47.03;27.30;;;9.00;99.90;;;;;;5041841;28;20214;-71
2024/03/18 05:20:30;;;;;;;46.85;27.73;;;9.00;99.90;;;;;;5040465;28;20265;-71
2024/03/18 05:22:56;;;;;;;50.30;27.42;;;8.90;99.90;;;;;;5041465;28;20182;-71
2024/03/18 05:25:22;;;;;;;45.03;26.55;;;9.00;99.90;;;;;;5041930;28;20197;-71
2024/03/18 05:27:48;;;;;;;45.53;27.13;;;9.00;99.90;;;;;;5041065;28;20214;-70
2024/03/18 05:30:14;;;;;;;50.42;26.77;;;8.90;99.90;;;;;;5041903;28;20195;-70
2024/03/18 05:32:40;;;;;;;48.03;27.92;;;9.00;99.90;;;;;;5041175;28;20194;-67
2024/03/18 05:35:06;;;;;;;52.28;28.15;;;8.90;99.90;;;;;;5040900;28;20317;-71
2024/03/18 05:37:32;;;;;;;42.17;27.27;;;8.90;99.90;;;;;;5041692;28;20279;-71
2024/03/18 05:39:58;;;;;;;46.30;27.08;;;9.00;99.90;;;;;;5041461;28;20340;-70
2024/03/18 05:42:23;;;;;;;48.65;27.50;;;9.00;99.90;;;;;;5040423;28;20600;-72
2024/03/18 05:44:49;;;;;;;47.75;27.52;;;9.00;99.90;;;;;;5040007;28;20316;-68
2024/03/18 05:47:15;;;;;;;46.78;27.77;;;9.00;99.90;;;;;;5041556;28;20237;-73
2024/03/18 05:49:41;;;;;;;48.13;28.15;;;9.10;99.90;;;;;;5039770;28;20234;-72
2024/03/18 05:52:07;;;;;;;51.03;28.77;;;9.10;99.90;;;;;;5041045;28;20183;-69
2024/03/18 05:54:33;;;;;;;47.78;28.95;;;9.10;99.90;;;;;;5040585;28;20291;-69
2024/03/18 05:56:59;;;;;;;52.25;27.77;;;9.20;99.90;;;;;;5040754;28;20559;-70
2024/03/18 05:59:24;;;;;;;52.08;28.10;;;9.10;99.90;;;;;;5040673;28;20250;-71
2024/03/18 06:01:51;;;;;;;50.97;29.42;;;9.10;99.90;;;;;;5040560;28;20671;-71
2024/03/18 06:04:17;;;;;;;52.20;28.20;;;9.10;99.90;;;;;;5041273;28;20198;-70
2024/03/18 06:06:43;;;;;;;56.22;29.45;;;9.20;99.90;;;;;;5040488;28;20561;-71
2024/03/18 06:09:09;;;;;;;59.40;30.33;;;9.20;99.90;;;;;;5041560;28;20686;-71
2024/03/18 06:11:35;;;;;;;54.20;28.60;;;9.20;99.90;;;;;;5041078;28;20265;-69
2024/03/18 06:14:08;;;;;;;50.25;30.52;;;9.20;99.90;;;;;;5039310;28;20215;-71
2024/03/18 06:16:35;;;;;;;52.15;30.83;;;9.20;99.90;;;;;;5039674;28;20316;-72
2024/03/18 06:19:03;;;;;;;54.72;31.38;;;9.20;99.90;;;;;;5039161;28;20563;-68
2024/03/18 06:21:39;;;;;;;57.40;32.08;;;9.20;99.90;;;;;;5040859;28;20202;-71
2024/03/18 06:24:07;;;;;;;56.28;30.27;;;9.20;99.90;;;;;;5040576;28;20229;-71
2024/03/18 06:26:33;;;;;;;54.50;31.17;;;9.20;99.90;;;;;;5040596;28;20238;-74
2024/03/18 06:28:59;;;;;;;53.03;30.42;;;9.20;99.90;;;;;;5040136;28;20195;-69
2024/03/18 06:31:26;;;;;;;53.78;29.02;;;9.30;99.90;;;;;;5041286;28;20555;-70
2024/03/18 06:33:55;;;;;;;49.50;28.55;;;9.30;99.90;;;;;;5041425;28;20225;-71
2024/03/18 06:36:21;;;;;;;53.03;29.63;;;9.30;99.90;;;;;;5039301;28;20210;-73
2024/03/18 06:38:47;;;;;;;50.88;29.92;;;9.30;99.90;;;;;;5040276;28;20191;-75
2024/03/18 06:41:13;;;;;;;54.72;30.73;;;9.30;99.90;;;;;;5040888;28;21038;-73
2024/03/18 06:43:39;;;;;;;55.63;30.00;;;9.40;99.90;;;;;;5040711;28;20194;-71
2024/03/18 06:46:05;;;;;;;48.45;29.13;;;9.40;99.90;;;;;;5041667;28;20785;-72
2024/03/18 06:48:34;;;;;;;50.88;29.98;;;9.40;99.90;;;;;;5044112;28;20282;-75
2024/03/18 06:51:00;;;;;;;49.08;28.77;;;9.40;99.90;;;;;;5045173;28;20622;-75
2024/03/18 06:53:26;;;;;;;52.40;30.83;;;9.50;99.90;;;;;;5044402;28;20191;-72
2024/03/18 06:55:51;;;;;;;49.97;29.77;;;9.40;99.90;;;;;;5044748;28;20190;-70
2024/03/18 06:58:21;;;;;;;55.13;30.02;;;9.50;99.90;;;;;;5043874;28;20189;-70
2024/03/18 07:00:47;;;;;;;50.45;28.10;;;9.50;99.90;;;;;;5044391;28;20191;-71
2024/03/18 07:03:13;;;;;;;43.58;25.90;;;9.50;99.90;;;;;;5043108;28;20655;-72
2024/03/18 07:05:38;;;;;;;47.33;27.15;;;9.60;99.90;;;;;;5037554;28;20332;-71
2024/03/18 07:08:04;;;;;;;46.63;27.92;;;9.60;99.90;;;;;;5042790;28;20191;-72
2024/03/18 07:10:30;;;;;;;46.97;27.60;;;9.60;99.90;;;;;;5042931;28;20234;-69
2024/03/18 07:12:56;;;;;;;49.50;27.35;;;9.60;99.90;;;;;;5044377;28;20209;-69
2024/03/18 07:15:22;;;;;;;48.92;27.75;;;9.70;99.90;;;;;;5044205;28;20222;-69
2024/03/18 07:17:48;;;;;;;50.33;29.63;;;9.70;99.90;;;;;;5042284;28;20211;-70
2024/03/18 07:20:13;;;;;;;52.50;29.50;;;9.70;99.90;;;;;;5042580;28;20192;-70
2024/03/18 07:22:40;;;;;;;52.90;29.73;;;9.80;99.90;;;;;;5042084;28;20198;-69
2024/03/18 07:25:16;;;;;;;44.15;26.77;;;9.80;99.90;;;;;;5043693;28;20202;-71
2024/03/18 07:27:43;;;;;;;48.83;29.05;;;9.80;99.90;;;;;;5034393;28;20598;-70
2024/03/18 07:30:12;;;;;;;51.78;28.13;;;9.70;99.90;;;;;;5043559;28;20187;-70
2024/03/18 07:32:39;;;;;;;58.45;28.95;;;9.80;99.90;;;;;;5042679;28;20187;-70
2024/03/18 07:35:06;;;;;;;46.85;28.25;;;9.80;99.90;;;;;;5040376;28;20213;-71
2024/03/18 07:37:32;;;;;;;53.75;29.88;;;9.80;99.90;;;;;;5041066;28;20192;-70
2024/03/18 07:39:58;;;;;;;50.05;28.52;;;9.80;99.90;;;;;;5042451;28;20206;-71
2024/03/18 07:42:25;;;;;;;54.95;30.33;;;9.90;99.90;;;;;;5041684;28;20595;-70
2024/03/18 07:44:57;;;;;;;55.03;30.02;;;9.90;99.90;;;;;;5025339;28;20195;-71
2024/03/18 07:47:26;;;;;;;56.97;30.20;;;9.90;99.90;;;;;;5043594;28;20282;-71
2024/03/18 07:49:52;;;;;;;54.45;29.38;;;9.90;99.90;;;;;;5040460;28;20194;-74
2024/03/18 07:52:18;;;;;;;58.03;28.58;;;10.00;99.90;;;;;;5039019;28;20233;-71
2024/03/18 07:54:44;;;;;;;58.35;33.28;;;10.00;99.90;;;;;;5040925;28;20226;-69
2024/03/18 07:57:10;;;;;;;57.58;30.70;;;10.10;99.90;;;;;;5040955;28;20184;-71
2024/03/18 07:59:35;;;;;;;52.95;30.33;;;10.10;99.90;;;;;;5040945;28;20218;-72
2024/03/18 08:02:01;;;;;;;56.65;30.25;;;10.10;99.90;;;;;;5042315;28;20747;-73
2024/03/18 08:04:27;;;;;;;59.63;30.65;;;10.10;99.90;;;;;;5040314;28;20219;-71
2024/03/18 08:06:53;;;;;;;60.50;32.10;;;10.10;99.90;;;;;;5043584;28;20198;-72
2024/03/18 08:09:20;;;;;;;63.95;31.67;;;10.10;99.90;;;;;;5043100;28;20187;-70
2024/03/18 08:11:47;;;;;;;64.15;32.60;;;10.10;99.90;;;;;;5042888;28;20218;-68
2024/03/18 08:14:13;;;;;;;55.15;30.85;;;10.20;99.90;;;;;;5042364;28;20219;-69
2024/03/18 08:16:40;;;;;;;63.72;31.83;;;10.20;99.90;;;;;;5042890;28;20188;-72
2024/03/18 08:19:06;;;;;;;66.30;33.55;;;10.20;99.90;;;;;;5042866;28;20203;-71
2024/03/18 08:21:32;;;;;;;63.53;30.20;;;10.30;99.90;;;;;;5040996;28;20195;-70
2024/03/18 08:23:59;;;;;;;61.63;32.22;;;10.30;99.90;;;;;;5042428;28;20233;-74
2024/03/18 08:26:28;;;;;;;64.78;32.10;;;10.30;99.90;;;;;;5042699;28;20221;-70
2024/03/18 08:28:54;;;;;;;67.50;31.92;;;10.30;99.90;;;;;;5042691;28;20221;-71
2024/03/18 08:31:20;;;;;;;66.85;32.70;;;10.30;99.90;;;;;;5041442;28;20187;-69
2024/03/18 08:33:46;;;;;;;62.42;32.55;;;10.40;99.90;;;;;;5040681;28;20226;-72
2024/03/18 08:36:12;;;;;;;65.88;32.80;;;10.40;99.90;;;;;;5057095;28;20192;-70
2024/03/18 08:38:38;;;;;;;66.53;32.90;;;10.40;99.90;;;;;;5041298;28;20195;-70
2024/03/18 08:41:04;;;;;;;61.70;32.63;;;10.40;99.90;;;;;;5040931;28;20193;-70
2024/03/18 08:43:30;;;;;;;65.95;32.95;;;10.40;99.90;;;;;;5042084;28;20240;-70
2024/03/18 08:45:57;;;;;;;58.95;32.70;;;10.50;99.90;;;;;;5041875;28;20194;-70
2024/03/18 08:48:24;;;;;;;72.40;33.83;;;10.50;99.90;;;;;;5042282;28;20199;-71
2024/03/18 08:50:50;;;;;;;64.20;31.92;;;10.60;99.90;;;;;;5042552;28;20222;-70
2024/03/18 08:53:16;;;;;;;65.00;33.25;;;10.60;99.90;;;;;;5042905;28;20557;-71
2024/03/18 08:55:46;;;;;;;66.78;32.03;;;10.60;99.90;;;;;;5041891;28;20219;-71
2024/03/18 08:58:12;;;;;;;62.75;32.08;;;10.60;99.90;;;;;;5041079;28;20187;-70
2024/03/18 09:00:38;;;;;;;66.82;32.50;;;10.70;99.90;;;;;;5041892;28;20483;-72
2024/03/18 09:03:04;;;;;;;60.03;33.30;;;10.70;99.90;;;;;;5040182;28;20336;-70
2024/03/18 09:05:30;;;;;;;63.88;32.72;;;10.70;99.90;;;;;;5041083;28;20197;-72
2024/03/18 09:07:57;;;;;;;57.30;31.88;;;10.80;99.90;;;;;;5042418;28;20787;-68
2024/03/18 09:10:22;;;;;;;58.90;32.88;;;10.90;99.90;;;;;;5041344;28;20687;-70
2024/03/18 09:12:48;;;;;;;63.28;33.13;;;10.90;99.90;;;;;;5039878;28;20195;-69
2024/03/18 09:15:14;;;;;;;63.95;33.67;;;11.00;99.90;;;;;;5042003;28;20686;-70
2024/03/18 09:17:41;;;;;;;60.03;33.78;;;11.00;99.90;;;;;;5040461;28;20199;-70
2024/03/18 09:20:09;;;;;;;63.33;34.58;;;11.00;99.90;;;;;;5041722;28;20280;-69
2024/03/18 09:22:36;;;;;;;61.50;31.98;;;11.10;99.90;;;;;;5040083;28;20198;-71
2024/03/18 09:25:06;;;;;;;62.25;33.45;;;11.20;99.90;;;;;;5041203;28;20195;-70
2024/03/18 09:27:33;;;;;;;62.97;32.80;;;11.20;99.90;;;;;;5041316;28;20187;-71
2024/03/18 09:30:00;;;;;;;63.03;33.67;;;11.20;99.90;;;;;;5041675;28;20277;-73
2024/03/18 09:32:25;;;;;;;57.70;32.30;;;11.30;99.90;;;;;;5039213;28;20213;-70
2024/03/18 09:34:52;;;;;;;68.82;33.35;;;11.30;99.90;;;;;;5041470;28;20248;-72
2024/03/18 09:37:18;;;;;;;69.20;33.83;;;11.30;99.90;;;;;;5040011;28;20202;-73
2024/03/18 09:39:44;;;;;;;58.75;31.52;;;11.30;99.90;;;;;;5040177;28;20195;-72
2024/03/18 09:42:11;;;;;;;61.10;32.85;;;11.20;99.90;;;;;;5039864;28;20230;-73
2024/03/18 09:44:38;;;;;;;69.63;33.92;;;11.20;99.90;;;;;;5041967;28;20655;-74
2024/03/18 09:47:05;;;;;;;68.72;33.38;;;11.20;99.90;;;;;;5039524;28;20206;-74
2024/03/18 09:49:32;;;;;;;67.00;34.47;;;11.20;99.90;;;;;;5040863;28;20199;-75
2024/03/18 09:51:59;;;;;;;67.18;35.08;;;11.20;99.90;;;;;;5040824;28;20235;-74
2024/03/18 09:54:24;;;;;;;71.50;33.42;;;11.30;99.90;;;;;;5036229;28;20318;-72
2024/03/18 09:57:04;;;;;;;67.22;35.50;;;11.30;99.90;;;;;;5041349;28;20286;-71
2024/03/18 09:59:31;;;;;;;70.10;35.40;;;11.30;99.90;;;;;;5040886;28;20187;-69
2024/03/18 10:01:56;;;;;;;75.15;36.40;;;11.30;99.90;;;;;;5023482;28;20190;-70
2024/03/18 10:04:22;;;;;;;71.38;36.17;;;11.20;99.90;;;;;;5040650;28;20326;-70
2024/03/18 10:06:51;;;;;;;62.92;35.00;;;11.20;99.90;;;;;;5023338;28;20190;-71
2024/03/18 10:09:19;;;;;;;71.25;35.15;;;11.30;99.90;;;;;;5041756;28;20187;-72
2024/03/18 10:11:47;;;;;;;62.25;33.92;;;11.30;99.90;;;;;;5041152;28;20695;-69
2024/03/18 10:14:13;;;;;;;62.53;33.85;;;11.40;99.90;;;;;;5040695;28;20314;-71
2024/03/18 10:16:38;;;;;;;63.30;33.70;;;11.40;99.90;;;;;;5040916;28;20277;-71
2024/03/18 10:19:07;;;;;;;67.78;35.25;;;11.40;99.90;;;;;;5041216;28;20202;-69
2024/03/18 10:21:37;;;;;;;65.22;34.88;;;11.40;99.90;;;;;;5042530;28;20191;-70
2024/03/18 10:24:02;;;;;;;64.35;34.78;;;11.50;99.90;;;;;;5045089;28;20179;-70
2024/03/18 10:26:31;;;;;;;66.20;34.83;;;11.50;99.90;;;;;;5045037;28;20198;-70
2024/03/18 10:28:57;;;;;;;68.20;35.08;;;11.50;99.90;;;;;;5044556;28;20659;-72
2024/03/18 10:31:23;;;;;;;60.97;33.70;;;11.60;99.90;;;;;;5044975;28;20187;-71
2024/03/18 10:33:50;;;;;;;57.42;33.00;;;11.50;99.90;;;;;;5043991;28;20233;-69
2024/03/18 10:36:23;;;;;;;63.33;34.00;;;11.60;99.90;;;;;;5044595;28;20223;-70
2024/03/18 10:39:07;;;;;;;51.13;29.98;;;11.60;99.90;;;;;;5045070;28;20226;-69
2024/03/18 10:41:39;;;;;;;55.50;29.45;;;11.70;99.90;;;;;;5044778;28;20278;-70
2024/03/18 10:44:23;;;;;;;60.13;31.48;;;11.70;99.90;;;;;;5043131;28;20193;-71
2024/03/18 10:46:50;;;;;;;58.17;31.90;;;11.70;99.90;;;;;;5043151;28;20201;-71
2024/03/18 10:49:17;;;;;;;49.88;30.58;;;11.70;99.90;;;;;;5044791;28;20214;-69
2024/03/18 10:51:46;;;;;;;51.97;29.70;;;11.70;99.90;;;;;;5043246;28;20191;-73
2024/03/18 10:54:15;;;;;;;48.42;28.50;;;11.80;99.90;;;;;;5044162;28;20210;-71
2024/03/18 10:56:45;;;;;;;47.70;28.05;;;11.80;99.90;;;;;;5043973;28;20214;-69
2024/03/18 10:59:14;;;;;;;45.08;26.88;;;11.90;99.90;;;;;;5044264;28;20179;-70
2024/03/18 11:01:41;;;;;;;43.25;26.80;;;12.00;99.90;;;;;;5025926;28;20282;-70
2024/03/18 11:04:28;;;;;;;43.58;26.77;;;12.10;99.90;;;;;;5043888;28;20203;-72
2024/03/18 11:06:57;;;;;;;45.92;30.63;;;12.20;99.90;;;;;;5043799;28;20209;-71
2024/03/18 11:09:23;;;;;;;40.17;25.70;;;12.30;99.90;;;;;;5043938;28;20282;-68
2024/03/18 11:11:50;;;;;;;44.35;26.95;;;12.30;99.90;;;;;;5043776;28;20226;-72
2024/03/18 11:14:26;;;;;;;44.60;26.50;;;12.50;99.90;;;;;;5044086;28;20303;-70
2024/03/18 11:16:52;;;;;;;42.17;26.35;;;12.50;99.90;;;;;;5043192;28;20234;-72
2024/03/18 11:19:19;;;;;;;44.00;26.25;;;12.60;99.90;;;;;;5043771;28;20288;-72
2024/03/18 11:21:56;;;;;;;48.50;28.15;;;12.70;99.90;;;;;;5044133;28;20191;-69
2024/03/18 11:24:22;;;;;;;47.28;27.15;;;12.80;99.90;;;;;;5042616;28;20559;-71
2024/03/18 11:26:58;;;;;;;46.35;28.13;;;12.90;99.90;;;;;;5044272;28;20203;-71
2024/03/18 11:29:37;;;;;;;48.80;27.67;;;12.90;99.90;;;;;;5024195;28;20187;-70
2024/03/18 11:32:03;;;;;;;57.20;32.25;;;12.90;99.90;;;;;;5042796;28;20215;-70
2024/03/18 11:34:31;;;;;;;52.80;30.50;;;12.90;99.90;;;;;;5043508;28;20276;-77
2024/03/18 11:36:59;;;;;;;58.97;31.67;;;12.80;99.90;;;;;;5042156;28;20195;-71
2024/03/18 11:39:27;;;;;;;60.25;31.80;;;12.80;99.90;;;;;;5042384;28;20245;-73
2024/03/18 11:42:03;;;;;;;68.35;34.33;;;12.80;99.90;;;;;;5042371;28;20684;-72
2024/03/18 11:44:31;;;;;;;61.25;34.45;;;12.80;99.90;;;;;;5040995;28;20191;-73
2024/03/18 11:47:04;;;;;;;62.25;34.05;;;12.80;99.90;;;;;;5041160;28;20182;-73
2024/03/18 11:49:30;;;;;;;65.35;35.20;;;12.80;99.90;;;;;;5043308;28;20647;-71
2024/03/18 11:52:00;;;;;;;67.55;35.08;;;12.80;99.90;;;;;;5043550;28;20670;-73
2024/03/18 11:54:26;;;;;;;64.82;34.67;;;12.80;99.90;;;;;;5043271;28;20398;-70
2024/03/18 11:57:02;;;;;;;71.72;36.20;;;12.80;99.90;;;;;;5042081;28;20630;-70
2024/03/18 11:59:30;;;;;;;63.88;33.90;;;12.90;99.90;;;;;;5043536;28;20273;-70
2024/03/18 12:01:58;;;;;;;70.82;35.85;;;12.90;99.90;;;;;;5041973;28;20194;-71
2024/03/18 12:04:24;;;;;;;68.13;35.28;;;12.90;99.90;;;;;;5041819;28;20357;-69
2024/03/18 12:06:49;;;;;;;65.32;35.35;;;12.90;99.90;;;;;;5042419;28;20193;-70
2024/03/18 12:09:17;;;;;;;71.63;35.95;;;13.00;99.90;;;;;;5043086;28;20611;-68
2024/03/18 12:11:43;;;;;;;68.00;35.58;;;12.90;99.90;;;;;;5042659;28;20234;-72
2024/03/18 12:14:10;;;;;;;72.07;36.40;;;12.90;99.90;;;;;;5042737;28;20230;-70
2024/03/18 12:16:37;;;;;;;74.20;35.72;;;12.90;99.90;;;;;;5042768;28;20195;-69
2024/03/18 12:19:08;;;;;;;71.18;37.50;;;12.90;99.90;;;;;;5042747;28;20218;-71
2024/03/18 12:21:40;;;;;;;71.45;34.20;;;12.90;99.90;;;;;;5043275;28;20218;-70
2024/03/18 12:29:39;;;;;;;69.53;34.05;;;12.90;99.90;;;;;;5041741;28;20206;-71
2024/03/18 12:32:05;;;;;;;68.25;34.42;;;12.90;99.90;;;;;;5042864;28;20639;-69
2024/03/18 12:34:32;;;;;;;72.68;36.75;;;12.90;99.90;;;;;;5042332;28;20210;-70
2024/03/18 12:37:00;;;;;;;63.75;35.92;;;12.90;99.90;;;;;;5040542;28;20224;-70